sensor_id;sensor_type;location;lat;lon;timestamp;P1;durP1;ratioP1;P2;durP2;ratioP2
1887;SDS011;944;51.574;6.980;2023-02-28T00:02:07;8.60;;;4.33;;
1887;SDS011;944;51.574;6.980;2023-02-28T00:04:35;10.07;;;4.53;;
1887;SDS011;944;51.574;6.980;2023-02-28T00:07:09;5.43;;;4.10;;
1887;SDS011;944;51.574;6.980;2023-02-28T00:10:13;4.93;;;4.33;;
1887;SDS011;944;51.574;6.980;2023-02-28T00:12:55;8.30;;;4.60;;
1887;SDS011;944;51.574;6.980;2023-02-28T00:15:37;12.30;;;4.80;;
1887;SDS011;944;51.574;6.980;2023-02-28T00:18:11;8.30;;;4.67;;
1887;SDS011;944;51.574;6.980;2023-02-28T00:20:39;9.10;;;4.67;;
1887;SDS011;944;51.574;6.980;2023-02-28T00:23:09;9.50;;;4.87;;
1887;SDS011;944;51.574;6.980;2023-02-28T00:25:41;6.33;;;4.63;;
1887;SDS011;944;51.574;6.980;2023-02-28T00:28:12;9.00;;;5.17;;
1887;SDS011;944;51.574;6.980;2023-02-28T00:30:41;9.40;;;5.20;;
1887;SDS011;944;51.574;6.980;2023-02-28T00:33:18;11.80;;;5.70;;
1887;SDS011;944;51.574;6.980;2023-02-28T00:35:52;10.93;;;5.80;;
1887;SDS011;944;51.574;6.980;2023-02-28T00:38:31;9.70;;;4.47;;
1887;SDS011;944;51.574;6.980;2023-02-28T00:41:03;6.90;;;4.90;;
1887;SDS011;944;51.574;6.980;2023-02-28T00:43:35;10.47;;;6.20;;
1887;SDS011;944;51.574;6.980;2023-02-28T00:46:08;8.40;;;4.90;;
1887;SDS011;944;51.574;6.980;2023-02-28T00:48:36;8.37;;;5.17;;
1887;SDS011;944;51.574;6.980;2023-02-28T00:51:03;15.47;;;5.40;;
1887;SDS011;944;51.574;6.980;2023-02-28T00:53:31;7.00;;;4.90;;
1887;SDS011;944;51.574;6.980;2023-02-28T00:56:00;7.80;;;5.07;;
1887;SDS011;944;51.574;6.980;2023-02-28T00:58:27;9.00;;;4.80;;
1887;SDS011;944;51.574;6.980;2023-02-28T01:00:55;9.03;;;4.43;;
1887;SDS011;944;51.574;6.980;2023-02-28T01:03:23;6.77;;;4.47;;
1887;SDS011;944;51.574;6.980;2023-02-28T01:05:53;8.83;;;4.27;;
1887;SDS011;944;51.574;6.980;2023-02-28T01:08:21;8.57;;;4.57;;
1887;SDS011;944;51.574;6.980;2023-02-28T01:10:50;6.90;;;4.87;;
1887;SDS011;944;51.574;6.980;2023-02-28T01:13:18;7.87;;;4.70;;
1887;SDS011;944;51.574;6.980;2023-02-28T01:15:49;13.03;;;4.27;;
1887;SDS011;944;51.574;6.980;2023-02-28T01:18:18;5.83;;;4.07;;
1887;SDS011;944;51.574;6.980;2023-02-28T01:20:54;10.90;;;4.77;;
1887;SDS011;944;51.574;6.980;2023-02-28T01:23:21;5.97;;;4.10;;
1887;SDS011;944;51.574;6.980;2023-02-28T01:25:49;6.03;;;4.40;;
1887;SDS011;944;51.574;6.980;2023-02-28T01:28:20;8.93;;;4.17;;
1887;SDS011;944;51.574;6.980;2023-02-28T01:30:48;5.40;;;3.80;;
1887;SDS011;944;51.574;6.980;2023-02-28T01:36:25;7.43;;;4.03;;
1887;SDS011;944;51.574;6.980;2023-02-28T01:38:52;8.30;;;4.50;;
1887;SDS011;944;51.574;6.980;2023-02-28T01:41:20;5.57;;;3.73;;
1887;SDS011;944;51.574;6.980;2023-02-28T01:43:52;6.77;;;4.10;;
1887;SDS011;944;51.574;6.980;2023-02-28T01:46:28;3.80;;;3.50;;
1887;SDS011;944;51.574;6.980;2023-02-28T01:48:57;5.40;;;3.70;;
1887;SDS011;944;51.574;6.980;2023-02-28T01:51:36;7.07;;;4.13;;
1887;SDS011;944;51.574;6.980;2023-02-28T01:54:11;6.57;;;4.00;;
1887;SDS011;944;51.574;6.980;2023-02-28T01:56:44;10.47;;;3.63;;
1887;SDS011;944;51.574;6.980;2023-02-28T01:59:18;13.00;;;4.13;;
1887;SDS011;944;51.574;6.980;2023-02-28T02:01:53;5.03;;;3.70;;
1887;SDS011;944;51.574;6.980;2023-02-28T02:04:20;6.60;;;3.73;;
1887;SDS011;944;51.574;6.980;2023-02-28T02:06:51;6.90;;;4.10;;
1887;SDS011;944;51.574;6.980;2023-02-28T02:09:18;7.00;;;4.27;;
1887;SDS011;944;51.574;6.980;2023-02-28T02:11:46;7.63;;;4.00;;
1887;SDS011;944;51.574;6.980;2023-02-28T02:14:35;5.80;;;3.67;;
1887;SDS011;944;51.574;6.980;2023-02-28T02:17:22;7.90;;;4.00;;
1887;SDS011;944;51.574;6.980;2023-02-28T02:23:42;5.10;;;3.80;;
1887;SDS011;944;51.574;6.980;2023-02-28T02:26:51;6.67;;;4.10;;
1887;SDS011;944;51.574;6.980;2023-02-28T02:33:24;6.30;;;3.43;;
1887;SDS011;944;51.574;6.980;2023-02-28T02:36:27;6.37;;;3.83;;
1887;SDS011;944;51.574;6.980;2023-02-28T02:39:02;5.40;;;3.47;;
1887;SDS011;944;51.574;6.980;2023-02-28T02:41:40;8.27;;;4.67;;
1887;SDS011;944;51.574;6.980;2023-02-28T02:44:15;6.13;;;4.20;;
1887;SDS011;944;51.574;6.980;2023-02-28T02:46:50;7.10;;;4.30;;
1887;SDS011;944;51.574;6.980;2023-02-28T02:49:24;9.03;;;4.33;;
1887;SDS011;944;51.574;6.980;2023-02-28T02:51:56;10.53;;;4.37;;
1887;SDS011;944;51.574;6.980;2023-02-28T02:54:30;5.53;;;3.23;;
1887;SDS011;944;51.574;6.980;2023-02-28T03:00:45;6.27;;;3.87;;
1887;SDS011;944;51.574;6.980;2023-02-28T03:06:24;5.00;;;3.00;;
1887;SDS011;944;51.574;6.980;2023-02-28T03:08:51;3.73;;;2.90;;
1887;SDS011;944;51.574;6.980;2023-02-28T03:11:19;2.90;;;2.53;;
1887;SDS011;944;51.574;6.980;2023-02-28T03:13:52;5.40;;;3.37;;
1887;SDS011;944;51.574;6.980;2023-02-28T03:16:35;4.17;;;2.93;;
1887;SDS011;944;51.574;6.980;2023-02-28T03:19:34;13.00;;;2.80;;
1887;SDS011;944;51.574;6.980;2023-02-28T03:25:20;5.90;;;3.37;;
1887;SDS011;944;51.574;6.980;2023-02-28T03:28:00;2.53;;;2.33;;
1887;SDS011;944;51.574;6.980;2023-02-28T03:30:36;5.50;;;3.23;;
1887;SDS011;944;51.574;6.980;2023-02-28T03:33:12;4.83;;;2.90;;
1887;SDS011;944;51.574;6.980;2023-02-28T03:35:48;4.10;;;3.33;;
1887;SDS011;944;51.574;6.980;2023-02-28T03:42:05;3.97;;;3.53;;
1887;SDS011;944;51.574;6.980;2023-02-28T03:44:39;5.90;;;3.60;;
1887;SDS011;944;51.574;6.980;2023-02-28T03:47:39;5.50;;;3.70;;
1887;SDS011;944;51.574;6.980;2023-02-28T03:50:25;4.33;;;3.20;;
1887;SDS011;944;51.574;6.980;2023-02-28T03:53:17;5.30;;;2.87;;
1887;SDS011;944;51.574;6.980;2023-02-28T03:59:36;7.30;;;3.77;;
1887;SDS011;944;51.574;6.980;2023-02-28T04:02:07;5.00;;;3.10;;
1887;SDS011;944;51.574;6.980;2023-02-28T04:15:34;8.13;;;2.97;;
1887;SDS011;944;51.574;6.980;2023-02-28T04:18:01;3.83;;;2.80;;
1887;SDS011;944;51.574;6.980;2023-02-28T04:20:28;4.90;;;2.73;;
1887;SDS011;944;51.574;6.980;2023-02-28T04:22:55;4.20;;;2.57;;
1887;SDS011;944;51.574;6.980;2023-02-28T04:25:23;4.00;;;2.70;;
1887;SDS011;944;51.574;6.980;2023-02-28T04:27:50;3.90;;;2.70;;
1887;SDS011;944;51.574;6.980;2023-02-28T04:30:17;2.67;;;2.33;;
1887;SDS011;944;51.574;6.980;2023-02-28T04:32:46;3.60;;;2.60;;
1887;SDS011;944;51.574;6.980;2023-02-28T04:35:13;4.50;;;2.67;;
1887;SDS011;944;51.574;6.980;2023-02-28T04:37:40;4.40;;;2.50;;
1887;SDS011;944;51.574;6.980;2023-02-28T04:40:08;3.23;;;2.63;;
1887;SDS011;944;51.574;6.980;2023-02-28T04:42:36;4.90;;;2.87;;
1887;SDS011;944;51.574;6.980;2023-02-28T04:45:04;3.53;;;2.80;;
1887;SDS011;944;51.574;6.980;2023-02-28T04:47:35;5.60;;;2.80;;
1887;SDS011;944;51.574;6.980;2023-02-28T04:50:07;7.53;;;2.60;;
1887;SDS011;944;51.574;6.980;2023-02-28T04:52:35;3.97;;;2.80;;
1887;SDS011;944;51.574;6.980;2023-02-28T04:55:02;5.17;;;2.93;;
1887;SDS011;944;51.574;6.980;2023-02-28T04:57:30;7.00;;;2.80;;
1887;SDS011;944;51.574;6.980;2023-02-28T04:59:57;3.37;;;2.63;;
1887;SDS011;944;51.574;6.980;2023-02-28T05:02:24;7.87;;;3.33;;
1887;SDS011;944;51.574;6.980;2023-02-28T05:04:51;3.20;;;2.90;;
1887;SDS011;944;51.574;6.980;2023-02-28T05:07:20;6.20;;;2.97;;
1887;SDS011;944;51.574;6.980;2023-02-28T05:09:47;2.53;;;2.33;;
1887;SDS011;944;51.574;6.980;2023-02-28T05:12:14;3.07;;;2.53;;
1887;SDS011;944;51.574;6.980;2023-02-28T05:14:41;6.10;;;3.10;;
1887;SDS011;944;51.574;6.980;2023-02-28T05:17:09;6.87;;;2.80;;
1887;SDS011;944;51.574;6.980;2023-02-28T05:19:36;4.20;;;2.80;;
1887;SDS011;944;51.574;6.980;2023-02-28T05:22:03;3.57;;;2.73;;
1887;SDS011;944;51.574;6.980;2023-02-28T05:24:31;3.73;;;3.07;;
1887;SDS011;944;51.574;6.980;2023-02-28T05:26:58;4.53;;;3.00;;
1887;SDS011;944;51.574;6.980;2023-02-28T05:29:25;4.60;;;3.00;;
1887;SDS011;944;51.574;6.980;2023-02-28T05:31:52;5.27;;;3.23;;
1887;SDS011;944;51.574;6.980;2023-02-28T05:34:19;3.97;;;3.17;;
1887;SDS011;944;51.574;6.980;2023-02-28T05:36:47;9.60;;;3.80;;
1887;SDS011;944;51.574;6.980;2023-02-28T05:39:13;18.53;;;3.30;;
1887;SDS011;944;51.574;6.980;2023-02-28T05:41:42;4.70;;;3.47;;
1887;SDS011;944;51.574;6.980;2023-02-28T05:44:09;5.97;;;2.80;;
1887;SDS011;944;51.574;6.980;2023-02-28T05:46:37;6.20;;;3.20;;
1887;SDS011;944;51.574;6.980;2023-02-28T05:49:04;3.63;;;3.13;;
1887;SDS011;944;51.574;6.980;2023-02-28T05:51:31;4.20;;;3.00;;
1887;SDS011;944;51.574;6.980;2023-02-28T05:53:59;4.77;;;3.00;;
1887;SDS011;944;51.574;6.980;2023-02-28T05:56:27;3.73;;;3.00;;
1887;SDS011;944;51.574;6.980;2023-02-28T05:58:55;4.80;;;2.60;;
1887;SDS011;944;51.574;6.980;2023-02-28T06:01:23;9.50;;;3.20;;
1887;SDS011;944;51.574;6.980;2023-02-28T06:03:58;4.03;;;3.37;;
1887;SDS011;944;51.574;6.980;2023-02-28T06:06:26;4.60;;;2.70;;
1887;SDS011;944;51.574;6.980;2023-02-28T06:08:53;4.40;;;2.80;;
1887;SDS011;944;51.574;6.980;2023-02-28T06:11:20;5.37;;;3.60;;
1887;SDS011;944;51.574;6.980;2023-02-28T06:13:52;3.60;;;3.00;;
1887;SDS011;944;51.574;6.980;2023-02-28T06:16:28;10.27;;;3.27;;
1887;SDS011;944;51.574;6.980;2023-02-28T06:19:00;7.37;;;3.50;;
1887;SDS011;944;51.574;6.980;2023-02-28T06:21:29;5.73;;;3.57;;
1887;SDS011;944;51.574;6.980;2023-02-28T06:23:56;4.70;;;3.43;;
1887;SDS011;944;51.574;6.980;2023-02-28T06:26:24;6.80;;;3.53;;
1887;SDS011;944;51.574;6.980;2023-02-28T06:28:52;7.07;;;3.50;;
1887;SDS011;944;51.574;6.980;2023-02-28T06:38:03;8.00;;;3.60;;
1887;SDS011;944;51.574;6.980;2023-02-28T06:40:30;4.47;;;3.37;;
1887;SDS011;944;51.574;6.980;2023-02-28T06:43:00;3.47;;;3.00;;
1887;SDS011;944;51.574;6.980;2023-02-28T06:45:28;4.43;;;3.00;;
1887;SDS011;944;51.574;6.980;2023-02-28T06:47:55;5.03;;;3.83;;
1887;SDS011;944;51.574;6.980;2023-02-28T06:50:23;4.23;;;3.03;;
1887;SDS011;944;51.574;6.980;2023-02-28T07:02:40;11.07;;;4.00;;
1887;SDS011;944;51.574;6.980;2023-02-28T07:05:10;5.90;;;3.87;;
1887;SDS011;944;51.574;6.980;2023-02-28T07:07:39;8.50;;;4.23;;
1887;SDS011;944;51.574;6.980;2023-02-28T07:10:09;7.93;;;4.10;;
1887;SDS011;944;51.574;6.980;2023-02-28T07:12:38;9.60;;;4.10;;
1887;SDS011;944;51.574;6.980;2023-02-28T07:15:05;5.80;;;3.97;;
1887;SDS011;944;51.574;6.980;2023-02-28T07:17:37;6.27;;;4.17;;
1887;SDS011;944;51.574;6.980;2023-02-28T07:20:06;7.10;;;3.40;;
1887;SDS011;944;51.574;6.980;2023-02-28T07:22:35;7.40;;;3.90;;
1887;SDS011;944;51.574;6.980;2023-02-28T07:28:20;7.50;;;3.67;;
1887;SDS011;944;51.574;6.980;2023-02-28T07:34:30;17.53;;;4.30;;
1887;SDS011;944;51.574;6.980;2023-02-28T07:36:57;4.63;;;4.23;;
1887;SDS011;944;51.574;6.980;2023-02-28T07:39:24;10.53;;;3.97;;
1887;SDS011;944;51.574;6.980;2023-02-28T07:41:51;5.20;;;3.73;;
1887;SDS011;944;51.574;6.980;2023-02-28T07:44:31;4.30;;;3.20;;
1887;SDS011;944;51.574;6.980;2023-02-28T07:46:58;7.53;;;3.50;;
1887;SDS011;944;51.574;6.980;2023-02-28T07:49:25;6.13;;;3.67;;
1887;SDS011;944;51.574;6.980;2023-02-28T07:55:36;5.10;;;3.53;;
1887;SDS011;944;51.574;6.980;2023-02-28T07:58:05;8.73;;;3.07;;
1887;SDS011;944;51.574;6.980;2023-02-28T08:00:32;3.83;;;3.13;;
1887;SDS011;944;51.574;6.980;2023-02-28T08:03:00;10.40;;;2.90;;
1887;SDS011;944;51.574;6.980;2023-02-28T09:42:33;3.60;;;2.40;;
1887;SDS011;944;51.574;6.980;2023-02-28T09:45:02;3.37;;;2.67;;
1887;SDS011;944;51.574;6.980;2023-02-28T09:47:42;2.90;;;2.63;;
1887;SDS011;944;51.574;6.980;2023-02-28T09:50:55;2.73;;;2.20;;
1887;SDS011;944;51.574;6.980;2023-02-28T09:53:33;2.10;;;1.97;;
1887;SDS011;944;51.574;6.980;2023-02-28T09:59:53;2.57;;;2.37;;
1887;SDS011;944;51.574;6.980;2023-02-28T10:08:49;3.83;;;2.73;;
1887;SDS011;944;51.574;6.980;2023-02-28T10:30:09;4.20;;;2.43;;
1887;SDS011;944;51.574;6.980;2023-02-28T10:32:43;3.37;;;2.53;;
1887;SDS011;944;51.574;6.980;2023-02-28T10:35:41;5.77;;;2.27;;
1887;SDS011;944;51.574;6.980;2023-02-28T10:41:37;11.27;;;2.73;;
1887;SDS011;944;51.574;6.980;2023-02-28T10:54:49;3.70;;;2.40;;
1887;SDS011;944;51.574;6.980;2023-02-28T10:57:20;2.77;;;2.57;;
1887;SDS011;944;51.574;6.980;2023-02-28T10:59:52;4.77;;;2.40;;
1887;SDS011;944;51.574;6.980;2023-02-28T11:02:43;2.40;;;2.20;;
1887;SDS011;944;51.574;6.980;2023-02-28T11:05:24;2.73;;;2.47;;
1887;SDS011;944;51.574;6.980;2023-02-28T11:11:41;3.80;;;2.57;;
1887;SDS011;944;51.574;6.980;2023-02-28T11:14:17;4.23;;;2.53;;
1887;SDS011;944;51.574;6.980;2023-02-28T11:16:48;5.13;;;2.57;;
1887;SDS011;944;51.574;6.980;2023-02-28T11:19:18;3.27;;;2.33;;
1887;SDS011;944;51.574;6.980;2023-02-28T11:21:54;3.37;;;2.37;;
1887;SDS011;944;51.574;6.980;2023-02-28T11:24:24;7.27;;;2.17;;
1887;SDS011;944;51.574;6.980;2023-02-28T11:26:57;7.40;;;3.00;;
1887;SDS011;944;51.574;6.980;2023-02-28T11:29:29;3.53;;;2.13;;
1887;SDS011;944;51.574;6.980;2023-02-28T11:32:00;2.50;;;2.30;;
1887;SDS011;944;51.574;6.980;2023-02-28T11:34:59;2.43;;;2.23;;
1887;SDS011;944;51.574;6.980;2023-02-28T11:37:30;3.50;;;2.43;;
1887;SDS011;944;51.574;6.980;2023-02-28T11:39:58;3.30;;;2.53;;
1887;SDS011;944;51.574;6.980;2023-02-28T11:42:30;2.53;;;2.33;;
1887;SDS011;944;51.574;6.980;2023-02-28T11:45:27;5.43;;;2.70;;
1887;SDS011;944;51.574;6.980;2023-02-28T11:48:18;4.67;;;2.80;;
1887;SDS011;944;51.574;6.980;2023-02-28T11:50:52;4.53;;;2.23;;
1887;SDS011;944;51.574;6.980;2023-02-28T11:53:35;5.00;;;2.93;;
1887;SDS011;944;51.574;6.980;2023-02-28T11:56:23;2.93;;;2.63;;
1887;SDS011;944;51.574;6.980;2023-02-28T12:13:38;2.87;;;2.63;;
1887;SDS011;944;51.574;6.980;2023-02-28T12:20:28;5.97;;;2.83;;
1887;SDS011;944;51.574;6.980;2023-02-28T12:23:10;2.93;;;2.63;;
1887;SDS011;944;51.574;6.980;2023-02-28T12:29:16;3.57;;;2.77;;
1887;SDS011;944;51.574;6.980;2023-02-28T12:31:59;5.07;;;3.10;;
1887;SDS011;944;51.574;6.980;2023-02-28T12:34:33;9.60;;;2.73;;
1887;SDS011;944;51.574;6.980;2023-02-28T12:40:55;6.37;;;2.83;;
1887;SDS011;944;51.574;6.980;2023-02-28T12:43:40;2.60;;;2.40;;
1887;SDS011;944;51.574;6.980;2023-02-28T12:46:12;2.80;;;2.60;;
1887;SDS011;944;51.574;6.980;2023-02-28T12:48:46;12.83;;;2.57;;
1887;SDS011;944;51.574;6.980;2023-02-28T12:51:22;2.73;;;2.40;;
1887;SDS011;944;51.574;6.980;2023-02-28T12:54:07;6.47;;;3.30;;
1887;SDS011;944;51.574;6.980;2023-02-28T12:56:47;3.77;;;2.50;;
1887;SDS011;944;51.574;6.980;2023-02-28T12:59:33;4.83;;;3.03;;
1887;SDS011;944;51.574;6.980;2023-02-28T13:02:46;3.63;;;2.83;;
1887;SDS011;944;51.574;6.980;2023-02-28T13:05:55;10.13;;;3.27;;
1887;SDS011;944;51.574;6.980;2023-02-28T13:09:20;6.13;;;2.97;;
1887;SDS011;944;51.574;6.980;2023-02-28T13:11:47;2.87;;;2.50;;
1887;SDS011;944;51.574;6.980;2023-02-28T13:14:25;2.70;;;2.50;;
1887;SDS011;944;51.574;6.980;2023-02-28T13:16:57;4.00;;;2.77;;
1887;SDS011;944;51.574;6.980;2023-02-28T13:19:34;3.43;;;2.53;;
1887;SDS011;944;51.574;6.980;2023-02-28T13:22:15;2.83;;;2.57;;
1887;SDS011;944;51.574;6.980;2023-02-28T13:35:14;4.20;;;2.57;;
1887;SDS011;944;51.574;6.980;2023-02-28T13:44:08;4.50;;;2.70;;
1887;SDS011;944;51.574;6.980;2023-02-28T13:47:15;6.47;;;3.10;;
1887;SDS011;944;51.574;6.980;2023-02-28T13:49:52;2.77;;;2.57;;
1887;SDS011;944;51.574;6.980;2023-02-28T13:52:20;4.80;;;2.50;;
1887;SDS011;944;51.574;6.980;2023-02-28T13:54:57;2.77;;;2.20;;
1887;SDS011;944;51.574;6.980;2023-02-28T13:57:59;8.27;;;2.43;;
1887;SDS011;944;51.574;6.980;2023-02-28T14:00:47;22.30;;;3.30;;
1887;SDS011;944;51.574;6.980;2023-02-28T14:07:16;4.20;;;3.13;;
1887;SDS011;944;51.574;6.980;2023-02-28T14:09:49;4.77;;;2.80;;
1887;SDS011;944;51.574;6.980;2023-02-28T14:15:28;3.37;;;2.87;;
1887;SDS011;944;51.574;6.980;2023-02-28T14:21:58;5.00;;;2.97;;
1887;SDS011;944;51.574;6.980;2023-02-28T14:24:46;4.43;;;2.57;;
1887;SDS011;944;51.574;6.980;2023-02-28T14:27:32;3.10;;;2.50;;
1887;SDS011;944;51.574;6.980;2023-02-28T14:34:01;5.30;;;3.10;;
1887;SDS011;944;51.574;6.980;2023-02-28T14:36:43;3.60;;;2.83;;
1887;SDS011;944;51.574;6.980;2023-02-28T14:39:12;3.50;;;2.90;;
1887;SDS011;944;51.574;6.980;2023-02-28T14:41:43;9.23;;;3.60;;
1887;SDS011;944;51.574;6.980;2023-02-28T14:44:16;4.20;;;3.33;;
1887;SDS011;944;51.574;6.980;2023-02-28T14:46:46;5.17;;;3.53;;
1887;SDS011;944;51.574;6.980;2023-02-28T14:49:17;4.23;;;3.83;;
1887;SDS011;944;51.574;6.980;2023-02-28T14:51:47;8.13;;;3.00;;
1887;SDS011;944;51.574;6.980;2023-02-28T14:54:16;5.27;;;3.10;;
1887;SDS011;944;51.574;6.980;2023-02-28T14:56:50;4.70;;;3.30;;
1887;SDS011;944;51.574;6.980;2023-02-28T14:59:25;5.30;;;3.30;;
1887;SDS011;944;51.574;6.980;2023-02-28T15:04:52;5.20;;;2.97;;
1887;SDS011;944;51.574;6.980;2023-02-28T15:11:05;4.93;;;3.30;;
1887;SDS011;944;51.574;6.980;2023-02-28T15:17:20;5.10;;;2.80;;
1887;SDS011;944;51.574;6.980;2023-02-28T15:19:52;7.93;;;3.37;;
1887;SDS011;944;51.574;6.980;2023-02-28T15:26:01;6.63;;;3.13;;
1887;SDS011;944;51.574;6.980;2023-02-28T15:28:28;3.27;;;2.77;;
1887;SDS011;944;51.574;6.980;2023-02-28T15:30:57;18.57;;;3.30;;
1887;SDS011;944;51.574;6.980;2023-02-28T15:33:28;5.60;;;3.23;;
1887;SDS011;944;51.574;6.980;2023-02-28T15:39:41;3.70;;;3.10;;
1887;SDS011;944;51.574;6.980;2023-02-28T15:49:14;5.03;;;3.57;;
1887;SDS011;944;51.574;6.980;2023-02-28T15:55:27;5.10;;;3.27;;
1887;SDS011;944;51.574;6.980;2023-02-28T15:57:56;6.07;;;3.10;;
1887;SDS011;944;51.574;6.980;2023-02-28T16:00:27;4.50;;;3.10;;
1887;SDS011;944;51.574;6.980;2023-02-28T16:02:57;4.33;;;3.13;;
1887;SDS011;944;51.574;6.980;2023-02-28T16:05:28;3.80;;;3.40;;
1887;SDS011;944;51.574;6.980;2023-02-28T16:11:38;4.80;;;3.40;;
1887;SDS011;944;51.574;6.980;2023-02-28T16:17:50;4.40;;;3.60;;
1887;SDS011;944;51.574;6.980;2023-02-28T16:20:18;4.93;;;3.43;;
1887;SDS011;944;51.574;6.980;2023-02-28T16:22:50;7.40;;;3.63;;
1887;SDS011;944;51.574;6.980;2023-02-28T16:28:58;5.00;;;3.70;;
1887;SDS011;944;51.574;6.980;2023-02-28T16:31:25;5.87;;;3.63;;
1887;SDS011;944;51.574;6.980;2023-02-28T16:33:52;5.83;;;3.73;;
1887;SDS011;944;51.574;6.980;2023-02-28T16:36:20;8.17;;;3.20;;
1887;SDS011;944;51.574;6.980;2023-02-28T16:38:51;6.67;;;3.57;;
1887;SDS011;944;51.574;6.980;2023-02-28T16:41:19;4.63;;;3.50;;
1887;SDS011;944;51.574;6.980;2023-02-28T16:43:50;9.73;;;3.97;;
1887;SDS011;944;51.574;6.980;2023-02-28T16:46:30;4.80;;;3.83;;
1887;SDS011;944;51.574;6.980;2023-02-28T16:48:59;6.57;;;3.30;;
1887;SDS011;944;51.574;6.980;2023-02-28T16:55:09;5.00;;;3.47;;
1887;SDS011;944;51.574;6.980;2023-02-28T16:57:36;4.07;;;3.33;;
1887;SDS011;944;51.574;6.980;2023-02-28T17:03:45;8.30;;;4.03;;
1887;SDS011;944;51.574;6.980;2023-02-28T17:06:15;4.80;;;3.70;;
1887;SDS011;944;51.574;6.980;2023-02-28T17:08:47;7.60;;;3.57;;
1887;SDS011;944;51.574;6.980;2023-02-28T17:14:56;4.40;;;3.57;;
1887;SDS011;944;51.574;6.980;2023-02-28T17:17:23;7.10;;;4.00;;
1887;SDS011;944;51.574;6.980;2023-02-28T17:19:50;7.20;;;3.80;;
1887;SDS011;944;51.574;6.980;2023-02-28T17:22:18;4.53;;;3.80;;
